Time;durP1;ratioP1;P1;durP2;ratioP2;P2;SDS_P1;SDS_P2;PMS_P1;PMS_P2;Temp;Humidity;BMP_temperature;BMP_pressure;BME280_temperature;BME280_humidity;BME280_pressure;Samples;Min_cycle;Max_cycle;Signal;HPM_P1;HPM_P2
2022/06/17 00:00:56;;;;;;;4.27;3.87;;;16.70;50.20;;;15.53;54.17;98484.31;5091729;28;20447;-76
2022/06/17 00:03:26;;;;;;;4.40;4.00;;;16.60;50.30;;;15.66;54.97;98526.00;5090693;28;20516;-76
2022/06/17 00:05:54;;;;;;;6.90;4.70;;;16.60;50.60;;;15.76;54.72;98526.25;5086442;28;20480;-76
2022/06/17 00:08:26;;;;;;;5.33;4.37;;;16.50;50.80;;;15.74;54.71;98531.13;5089028;28;20467;-76
2022/06/17 00:10:57;;;;;;;5.00;4.43;;;16.50;50.90;;;15.56;55.50;98519.28;5089529;28;21052;-76
2022/06/17 00:13:24;;;;;;;5.00;4.60;;;16.50;51.10;;;15.67;55.30;98531.25;5090296;28;20447;-76
2022/06/17 00:15:53;;;;;;;4.33;4.03;;;16.50;51.10;;;15.60;55.17;98518.81;5089416;28;21173;-75
2022/06/17 00:18:22;;;;;;;4.40;4.00;;;16.40;51.30;;;15.38;56.31;98522.06;5083718;28;20451;-76
2022/06/17 00:20:50;;;;;;;4.00;3.47;;;16.30;51.50;;;15.29;56.17;98530.59;5082634;28;20482;-76
2022/06/17 00:23:21;;;;;;;5.07;4.50;;;16.20;51.80;;;15.35;56.43;98533.44;5086099;28;20481;-77
2022/06/17 00:25:50;;;;;;;4.47;4.17;;;16.20;51.90;;;15.35;56.82;98533.44;5089021;28;20475;-76
2022/06/17 00:28:21;;;;;;;6.30;4.37;;;16.20;52.10;;;15.18;56.19;98490.56;5089466;28;20478;-76
2022/06/17 00:30:50;;;;;;;4.20;3.90;;;16.20;52.40;;;15.37;56.58;98545.75;5084497;28;20481;-76
2022/06/17 00:33:19;;;;;;;4.40;4.03;;;16.30;52.30;;;15.26;56.95;98543.84;5088141;28;20456;-76
2022/06/17 00:35:50;;;;;;;4.90;4.50;;;16.20;52.40;;;15.19;57.02;98532.25;5085250;28;20485;-76
2022/06/17 00:38:23;;;;;;;8.97;4.27;;;16.10;52.60;;;15.29;56.70;98538.78;5082787;28;20474;-76
2022/06/17 00:40:52;;;;;;;4.60;4.20;;;16.10;52.70;;;15.20;57.59;98547.50;5082860;28;21017;-76
2022/06/17 00:43:30;;;;;;;5.67;4.47;;;16.10;52.80;;;15.36;57.02;98548.72;5079739;28;20460;-76
2022/06/17 00:46:06;;;;;;;4.67;4.27;;;16.20;53.00;;;15.13;56.82;98509.50;5104860;28;20483;-76
2022/06/17 00:48:40;;;;;;;4.53;4.13;;;16.30;53.00;;;15.36;57.06;98554.16;5086598;28;20466;-76
2022/06/17 00:51:23;;;;;;;6.57;4.20;;;16.30;52.90;;;15.46;56.96;98557.16;5088549;28;20799;-76
2022/06/17 00:53:55;;;;;;;4.93;4.47;;;16.30;52.90;;;15.32;57.17;98540.22;5089070;28;20504;-76
2022/06/17 00:56:26;;;;;;;6.77;4.40;;;16.30;53.00;;;15.17;57.38;98548.78;5089508;28;20662;-76
2022/06/17 00:59:04;;;;;;;7.93;5.03;;;16.10;53.10;;;15.04;57.71;98538.94;5088865;28;20927;-77
2022/06/17 01:01:44;;;;;;;4.80;4.33;;;16.00;53.30;;;15.07;57.66;98540.34;5088304;28;20498;-76
2022/06/17 01:04:12;;;;;;;4.47;4.07;;;16.00;53.60;;;14.92;57.89;98533.44;5084417;28;21139;-76
2022/06/17 01:06:43;;;;;;;5.37;4.20;;;15.90;53.60;;;15.00;57.88;98537.72;5076573;28;20540;-76
2022/06/17 01:12:05;;;;;;;7.17;4.30;;;15.90;53.70;;;14.59;58.17;98477.59;5083546;28;20952;-76
2022/06/17 01:14:34;;;;;;;6.53;4.70;;;15.80;53.90;;;15.12;58.02;98526.91;5069650;28;20745;-76
2022/06/17 01:17:03;;;;;;;4.90;4.50;;;15.90;54.30;;;15.15;57.83;98529.97;5071904;28;20505;-76
2022/06/17 01:19:37;;;;;;;4.47;4.07;;;16.00;54.30;;;15.12;57.84;98529.63;5081398;28;20467;-76
2022/06/17 01:22:16;;;;;;;5.00;4.60;;;16.00;54.10;;;15.14;58.12;98524.78;5080266;28;20530;-76
2022/06/17 01:24:47;;;;;;;5.83;4.80;;;16.00;54.30;;;15.09;58.34;98530.06;5088031;28;21027;-76
2022/06/17 01:27:21;;;;;;;5.37;4.53;;;15.90;54.50;;;15.02;58.33;98541.88;5088808;28;20450;-75
2022/06/17 01:29:48;;;;;;;4.80;4.30;;;15.90;54.40;;;15.01;58.30;98545.66;5087466;28;20505;-76
2022/06/17 01:32:18;;;;;;;4.70;4.30;;;15.90;54.70;;;14.92;58.35;98547.03;5083185;28;20464;-76
2022/06/17 01:34:45;;;;;;;4.90;4.50;;;15.80;54.50;;;14.81;59.10;98553.28;5083443;28;20451;-76
2022/06/17 01:37:13;;;;;;;5.17;4.60;;;15.70;54.90;;;14.82;58.68;98558.47;5078474;28;20946;-76
2022/06/17 01:39:41;;;;;;;5.20;4.40;;;15.70;54.80;;;14.77;59.30;98554.78;5091480;28;21007;-76
2022/06/17 01:42:11;;;;;;;5.73;5.23;;;15.60;55.30;;;14.73;59.20;98555.25;5084660;28;20464;-76
2022/06/17 01:44:41;;;;;;;5.90;5.30;;;15.60;55.50;;;14.75;59.58;98557.75;5085111;28;20590;-77
2022/06/17 01:47:13;;;;;;;5.93;4.73;;;15.60;55.70;;;14.68;59.88;98538.78;5088143;28;20550;-77
2022/06/17 01:49:43;;;;;;;5.17;4.73;;;15.50;56.00;;;14.65;60.24;98544.69;5089636;28;20506;-77
2022/06/17 01:52:16;;;;;;;4.97;4.53;;;15.50;56.50;;;14.33;60.24;98514.97;5085139;28;20464;-76
2022/06/17 01:54:49;;;;;;;4.80;4.47;;;15.40;56.50;;;14.44;60.66;98527.78;5082910;28;20525;-76
2022/06/17 01:57:25;;;;;;;9.10;5.27;;;15.30;56.90;;;14.37;60.95;98540.63;5087632;28;20466;-76
2022/06/17 01:59:57;;;;;;;5.67;5.27;;;15.30;57.00;;;14.21;61.36;98543.97;5087131;28;20946;-76
2022/06/17 02:02:25;;;;;;;5.23;4.83;;;15.20;57.50;;;14.21;61.49;98549.38;5087552;28;20432;-76
2022/06/17 02:04:59;;;;;;;5.53;5.13;;;15.10;57.90;;;14.04;61.32;98525.53;5088545;28;20788;-76
2022/06/17 02:07:34;;;;;;;5.47;4.97;;;15.10;57.90;;;14.14;61.49;98535.88;5076126;28;20440;-77
2022/06/17 02:10:02;;;;;;;12.30;5.90;;;15.10;58.50;;;14.06;62.21;98534.28;5077179;28;20475;-76
2022/06/17 02:12:32;;;;;;;5.53;4.93;;;15.00;58.70;;;14.05;61.89;98526.34;5076007;28;21021;-77
2022/06/17 02:14:59;;;;;;;4.93;4.53;;;15.00;59.00;;;14.14;61.76;98542.13;5107365;28;20933;-77
2022/06/17 02:17:32;;;;;;;5.30;4.87;;;15.00;59.20;;;14.14;62.02;98539.41;5108274;28;20499;-76
2022/06/17 02:19:59;;;;;;;5.17;4.67;;;15.10;59.20;;;14.16;61.73;98540.00;5105619;28;20450;-76
2022/06/17 02:22:31;;;;;;;5.37;4.97;;;15.10;59.30;;;14.07;62.17;98540.53;5085815;28;20455;-77
2022/06/17 02:25:04;;;;;;;5.10;4.60;;;15.00;59.50;;;13.59;62.12;98465.00;5085700;28;20463;-76
2022/06/17 02:27:35;;;;;;;6.30;5.90;;;14.90;59.90;;;14.00;62.54;98557.75;5086886;28;20565;-76
2022/06/17 02:30:06;;;;;;;5.90;5.50;;;14.90;60.10;;;13.88;62.76;98564.97;5104163;28;20476;-76
2022/06/17 02:32:34;;;;;;;5.13;4.70;;;14.90;60.30;;;13.88;62.96;98573.97;5087006;28;20470;-76
2022/06/17 02:35:06;;;;;;;7.43;5.37;;;14.80;60.80;;;13.90;62.91;98556.59;5086024;28;20877;-76
2022/06/17 02:37:34;;;;;;;7.00;5.00;;;14.80;61.10;;;13.79;63.49;98560.88;5090487;28;20459;-75
2022/06/17 02:40:05;;;;;;;5.60;5.17;;;14.70;61.50;;;13.69;63.60;98556.78;5086641;28;20493;-75
2022/06/17 02:42:38;;;;;;;6.20;5.70;;;14.70;61.90;;;13.66;63.97;98557.25;5081209;28;20954;-77
2022/06/17 02:45:14;;;;;;;9.40;5.60;;;14.60;62.20;;;13.63;64.22;98546.81;5079561;28;20839;-75
2022/06/17 02:47:41;;;;;;;5.93;5.53;;;14.60;62.70;;;13.63;64.06;98554.13;5086222;28;20503;-77
2022/06/17 02:50:19;;;;;;;5.83;5.43;;;14.60;63.10;;;13.67;64.01;98548.03;5085852;28;20831;-75
2022/06/17 02:52:48;;;;;;;6.10;5.60;;;14.60;63.70;;;13.49;64.90;98556.94;5085967;28;20463;-76
2022/06/17 02:55:20;;;;;;;6.27;5.67;;;14.50;63.90;;;13.45;64.96;98559.28;5087564;28;20455;-76
2022/06/17 02:57:49;;;;;;;6.53;5.93;;;14.40;64.60;;;13.47;65.06;98564.50;5086340;28;20459;-76
2022/06/17 03:00:20;;;;;;;5.57;5.17;;;14.40;64.60;;;13.47;65.26;98572.63;5087884;28;20973;-76
2022/06/17 03:02:51;;;;;;;6.07;5.47;;;14.40;65.30;;;13.41;65.55;98570.75;5085782;28;20452;-76
2022/06/17 03:05:25;;;;;;;6.67;6.07;;;14.40;65.80;;;13.37;65.32;98569.53;5085556;28;20530;-76
2022/06/17 03:07:54;;;;;;;5.97;5.47;;;14.40;65.90;;;13.33;65.89;98574.56;5086168;28;20458;-76
2022/06/17 03:10:30;;;;;;;7.40;5.77;;;14.30;66.50;;;13.39;65.51;98570.16;5083457;28;20547;-76
2022/06/17 03:13:05;;;;;;;6.80;5.73;;;14.30;66.50;;;13.30;65.57;98561.44;5083651;28;20465;-76
2022/06/17 03:15:33;;;;;;;6.00;5.50;;;14.30;66.80;;;13.33;65.88;98571.84;5081931;28;20458;-76
2022/06/17 03:18:00;;;;;;;6.37;5.73;;;14.30;66.80;;;13.26;66.26;98580.03;5091474;28;20459;-76
2022/06/17 03:20:34;;;;;;;6.53;5.20;;;14.20;67.10;;;13.20;66.43;98575.50;5090951;28;21003;-76
2022/06/17 03:23:07;;;;;;;6.27;5.77;;;14.20;67.50;;;13.27;66.07;98570.88;5091014;28;20476;-75
2022/06/17 03:25:42;;;;;;;5.40;5.03;;;14.20;67.80;;;12.88;66.46;98530.19;5107606;28;20455;-76
2022/06/17 03:28:19;;;;;;;9.40;6.50;;;14.20;68.00;;;13.42;65.64;98580.56;5094078;28;20448;-76
2022/06/17 03:30:57;;;;;;;6.27;5.77;;;14.30;68.00;;;13.24;66.01;98565.88;5081546;28;20451;-76
2022/06/17 03:33:34;;;;;;;6.73;6.23;;;14.30;67.70;;;13.35;65.82;98563.50;5091329;28;20577;-76
2022/06/17 03:36:19;;;;;;;6.47;5.87;;;14.40;68.00;;;13.44;65.73;98575.78;5088065;28;20568;-75
2022/06/17 03:38:51;;;;;;;5.67;5.17;;;14.40;67.80;;;13.37;66.17;98564.13;5107673;28;20515;-76
2022/06/17 03:41:25;;;;;;;6.83;6.17;;;14.40;67.80;;;13.34;66.22;98572.69;5081610;28;20466;-76
2022/06/17 03:44:00;;;;;;;7.53;6.23;;;14.40;68.00;;;13.20;66.29;98561.94;5085554;28;20463;-77
2022/06/17 03:46:32;;;;;;;8.50;5.93;;;14.30;68.20;;;13.44;66.29;98592.09;5091471;28;20455;-76
2022/06/17 03:49:07;;;;;;;6.50;5.67;;;14.30;68.50;;;13.52;65.58;98599.94;5090254;28;20541;-76
2022/06/17 03:51:37;;;;;;;6.83;6.07;;;14.40;67.90;;;13.45;65.83;98600.00;5085640;28;20449;-76
2022/06/17 03:54:05;;;;;;;6.53;5.93;;;14.40;68.00;;;13.45;66.07;98610.84;5091213;28;20926;-76
2022/06/17 03:56:35;;;;;;;7.40;6.77;;;14.40;68.10;;;13.46;66.05;98611.69;5081948;28;21007;-76
2022/06/17 03:59:08;;;;;;;6.47;5.87;;;14.40;68.20;;;13.38;66.14;98614.63;5084818;28;21011;-76
2022/06/17 04:01:41;;;;;;;6.80;6.20;;;14.40;68.30;;;13.44;66.14;98614.59;5105121;28;20462;-76
2022/06/17 04:04:17;;;;;;;6.47;5.87;;;14.40;68.30;;;13.23;65.71;98556.06;5090386;28;20492;-76
2022/06/17 04:06:48;;;;;;;6.50;5.90;;;14.50;68.10;;;14.05;62.20;98531.78;5088212;28;20514;-76
2022/06/17 04:09:18;;;;;;;6.03;5.53;;;15.30;66.20;;;15.63;59.53;98619.09;5090935;28;20985;-75
2022/06/17 04:11:49;;;;;;;6.83;6.20;;;16.30;63.30;;;16.56;56.53;98613.09;5090306;28;20459;-76
2022/06/17 04:14:24;;;;;;;6.43;5.60;;;17.50;59.80;;;17.27;54.47;98618.34;5093834;28;20443;-76
2022/06/17 04:17:04;;;;;;;7.97;5.77;;;18.40;57.50;;;18.24;51.62;98620.22;5088113;28;21118;-76
2022/06/17 04:19:33;;;;;;;6.00;5.50;;;19.30;55.20;;;19.23;48.87;98619.56;5076341;28;20479;-76
2022/06/17 04:22:05;;;;;;;6.40;5.30;;;20.20;53.60;;;19.54;47.68;98614.41;5085498;28;20942;-76
2022/06/17 04:24:34;;;;;;;8.27;5.70;;;20.80;51.90;;;20.06;46.12;98620.31;5090892;28;20455;-76
2022/06/17 04:27:06;;;;;;;5.60;5.10;;;21.20;50.90;;;19.74;46.62;98618.41;5089863;28;20444;-76
2022/06/17 04:29:46;;;;;;;5.70;5.20;;;21.00;50.50;;;19.95;46.31;98624.91;5089699;28;20471;-76
2022/06/17 04:32:20;;;;;;;5.93;5.30;;;21.20;50.40;;;20.98;43.69;98629.34;5078651;28;20466;-76
2022/06/17 04:34:47;;;;;;;5.40;4.90;;;22.30;49.50;;;20.86;43.89;98626.00;5076042;28;20458;-77
2022/06/17 04:37:20;;;;;;;6.40;4.97;;;22.10;48.80;;;21.85;41.96;98635.31;5091130;28;20517;-77
2022/06/17 04:39:53;;;;;;;5.07;4.67;;;22.90;48.50;;;22.07;41.37;98632.28;5083003;28;20514;-77
2022/06/17 04:42:25;;;;;;;5.47;5.07;;;23.30;47.70;;;22.60;40.35;98634.69;5089237;28;20509;-76
2022/06/17 04:44:54;;;;;;;5.03;4.53;;;23.60;47.40;;;22.68;40.08;98632.47;5090195;28;20453;-77
2022/06/17 04:47:22;;;;;;;6.70;5.00;;;24.10;46.90;;;22.99;38.90;98624.91;5083743;28;20671;-77
2022/06/17 04:49:53;;;;;;;6.47;5.47;;;24.30;46.50;;;22.56;39.65;98625.34;5081363;28;20477;-77
2022/06/17 04:52:28;;;;;;;4.80;4.50;;;23.90;46.20;;;22.58;39.68;98631.41;5088710;28;20454;-76
2022/06/17 04:54:59;;;;;;;5.20;4.80;;;23.80;46.40;;;22.47;40.20;98630.59;5079525;28;20811;-76
2022/06/17 04:57:27;;;;;;;7.37;4.77;;;23.80;46.50;;;22.46;40.19;98639.94;5089288;28;20457;-76
2022/06/17 04:59:58;;;;;;;6.27;5.57;;;23.90;46.40;;;21.40;42.31;98634.97;5089445;28;20460;-76
2022/06/17 05:02:29;;;;;;;5.27;4.90;;;23.20;46.60;;;21.57;42.42;98648.44;5089563;28;20448;-76
2022/06/17 05:04:59;;;;;;;4.77;4.37;;;22.70;47.10;;;21.60;42.19;98645.16;5080528;28;20460;-76
2022/06/17 05:07:29;;;;;;;5.67;5.20;;;22.60;47.30;;;21.69;42.18;98643.56;5085467;28;20945;-76
2022/06/17 05:10:01;;;;;;;4.87;4.57;;;22.70;47.30;;;21.82;42.23;98652.38;5090158;28;20479;-76
2022/06/17 05:12:33;;;;;;;5.97;5.50;;;22.60;47.60;;;21.52;42.43;98647.34;5088815;28;20553;-76
2022/06/17 05:15:07;;;;;;;5.60;5.20;;;23.10;47.20;;;21.09;43.38;98638.44;5087789;28;20941;-76
2022/06/17 05:17:38;;;;;;;8.03;5.40;;;22.80;47.20;;;21.62;42.50;98638.28;5073377;28;20447;-76
2022/06/17 05:20:07;;;;;;;6.47;4.77;;;23.10;47.20;;;21.29;42.89;98656.09;5087450;28;20520;-76
2022/06/17 05:22:41;;;;;;;6.67;5.37;;;22.80;47.20;;;21.08;43.09;98656.03;5086367;28;20442;-77
2022/06/17 05:25:15;;;;;;;5.97;5.37;;;22.20;47.50;;;22.01;41.86;98661.72;5090327;28;20482;-76
2022/06/17 05:27:44;;;;;;;5.10;4.50;;;22.70;47.60;;;22.54;40.69;98668.84;5097244;28;20512;-76
2022/06/17 05:30:13;;;;;;;5.20;4.80;;;23.30;47.20;;;23.38;39.17;98664.69;5097961;28;20466;-76
2022/06/17 05:32:44;;;;;;;8.90;4.87;;;24.40;46.90;;;22.27;41.36;98675.47;5097021;28;20458;-77
2022/06/17 05:35:11;;;;;;;7.07;5.10;;;24.10;46.60;;;20.97;44.03;98670.81;5099880;28;20461;-77
2022/06/17 05:37:39;;;;;;;5.70;4.83;;;22.60;47.00;;;21.36;43.43;98673.16;5096429;28;20467;-77
2022/06/17 05:40:08;;;;;;;4.50;4.10;;;22.90;47.40;;;21.70;42.62;98678.19;5090478;28;20851;-77
2022/06/17 05:42:36;;;;;;;6.60;4.73;;;23.00;47.30;;;22.15;41.66;98677.66;5089449;28;20458;-78
2022/06/17 05:45:05;;;;;;;5.50;4.93;;;23.20;47.30;;;22.77;40.08;98669.31;5089656;28;20511;-78
2022/06/17 05:47:33;;;;;;;4.70;4.30;;;23.90;46.60;;;22.28;40.47;98677.13;5083339;28;20888;-78
2022/06/17 05:50:01;;;;;;;5.00;4.57;;;23.60;46.60;;;22.12;40.96;98686.47;5084914;28;20495;-77
2022/06/17 05:52:28;;;;;;;5.80;4.30;;;23.60;46.40;;;21.29;43.24;98689.06;5086982;28;20454;-76
2022/06/17 05:55:01;;;;;;;5.60;4.23;;;23.30;46.60;;;21.43;43.48;98687.44;5086841;28;21000;-75
2022/06/17 05:57:29;;;;;;;6.40;5.10;;;23.30;47.20;;;22.92;40.10;98688.56;5078269;28;20556;-76
2022/06/17 05:59:56;;;;;;;5.57;4.97;;;23.80;46.90;;;23.15;39.84;98682.69;5087497;28;20511;-76
2022/06/17 06:02:23;;;;;;;5.27;4.63;;;24.50;46.50;;;22.98;39.27;98694.06;5078467;28;20455;-77
2022/06/17 06:04:52;;;;;;;5.63;4.60;;;24.40;45.90;;;22.29;40.70;98688.94;5085082;28;20459;-77
2022/06/17 06:07:19;;;;;;;5.70;4.60;;;24.20;46.10;;;22.19;41.56;98695.28;5088349;28;20484;-76
2022/06/17 06:09:47;;;;;;;4.60;4.13;;;23.70;46.40;;;22.62;39.64;98700.50;5090014;28;20477;-76
2022/06/17 06:12:14;;;;;;;5.20;4.30;;;24.10;45.90;;;22.53;40.22;98699.41;5084595;28;20971;-76
2022/06/17 06:14:42;;;;;;;5.50;4.47;;;24.10;46.10;;;23.27;38.89;98697.00;5082870;28;20449;-77
2022/06/17 06:17:11;;;;;;;5.70;4.30;;;24.60;46.00;;;24.00;37.54;98702.88;5086403;28;20727;-77
2022/06/17 06:19:39;;;;;;;4.33;3.90;;;24.90;45.60;;;24.48;36.30;98696.72;5087255;28;20504;-78
2022/06/17 06:22:07;;;;;;;6.10;4.10;;;25.60;44.80;;;24.82;35.39;98700.53;5076670;28;20522;-77
2022/06/17 06:24:34;;;;;;;5.73;4.00;;;26.20;44.20;;;24.33;36.45;98708.72;5071517;28;20459;-78
2022/06/17 06:27:02;;;;;;;5.03;4.63;;;26.20;44.10;;;24.48;36.76;98713.28;5085300;28;20463;-78
2022/06/17 06:29:29;;;;;;;4.23;3.90;;;26.20;44.40;;;23.95;37.01;98707.59;5086853;28;20454;-77
2022/06/17 06:31:56;;;;;;;6.90;4.40;;;25.20;44.50;;;23.53;38.02;98710.66;5086524;28;20463;-78
2022/06/17 06:34:24;;;;;;;4.03;3.63;;;24.80;44.90;;;22.22;40.06;98712.06;5078988;28;20462;-77
2022/06/17 06:36:51;;;;;;;4.60;4.30;;;23.80;45.10;;;20.52;43.54;98715.00;5084624;28;21020;-77
2022/06/17 06:39:20;;;;;;;4.33;4.03;;;22.50;45.80;;;20.15;44.72;98715.84;5083507;28;20463;-75
2022/06/17 06:41:47;;;;;;;5.33;3.83;;;21.50;46.60;;;20.00;45.23;98717.38;5086104;28;20444;-76
2022/06/17 06:44:14;;;;;;;4.20;3.80;;;21.20;47.20;;;19.92;45.73;98715.09;5087961;28;20817;-77
2022/06/17 06:46:42;;;;;;;4.70;4.40;;;21.00;47.70;;;19.75;45.95;98718.72;5081791;28;20518;-78
2022/06/17 06:49:09;;;;;;;5.03;4.50;;;20.80;47.60;;;20.03;45.11;98724.25;5069669;28;20865;-77
2022/06/17 06:51:36;;;;;;;4.70;4.07;;;20.90;47.90;;;20.15;44.74;98726.81;5083588;28;20526;-77
2022/06/17 06:54:05;;;;;;;3.90;3.60;;;20.90;47.80;;;20.38;44.30;98725.63;5087193;28;20506;-75
2022/06/17 06:56:33;;;;;;;3.87;3.57;;;21.20;47.70;;;20.15;45.11;98696.66;5088522;28;20433;-76
2022/06/17 06:59:01;;;;;;;4.23;3.80;;;21.20;47.90;;;20.63;44.78;98730.47;5088135;28;20499;-76
2022/06/17 07:01:28;;;;;;;4.33;3.93;;;21.30;48.00;;;20.61;44.11;98729.06;5088827;28;20447;-76
2022/06/17 07:03:56;;;;;;;4.43;4.03;;;21.40;47.40;;;20.78;43.20;98735.25;5080381;28;20453;-76
2022/06/17 07:06:23;;;;;;;4.73;4.13;;;21.60;47.20;;;20.97;43.28;98723.84;5086981;28;20456;-77
2022/06/17 07:08:51;;;;;;;4.63;4.10;;;21.70;47.40;;;20.64;44.28;98729.38;5087981;28;20478;-77
2022/06/17 07:11:18;;;;;;;4.63;4.20;;;21.70;47.70;;;20.28;44.63;98704.44;5088043;28;20475;-77
2022/06/17 07:13:47;;;;;;;5.87;4.00;;;21.40;47.60;;;20.33;44.58;98734.63;5068602;28;20458;-78
2022/06/17 07:16:14;;;;;;;4.10;3.77;;;21.20;47.60;;;20.52;44.73;98736.97;5082529;28;20451;-77
2022/06/17 07:18:41;;;;;;;4.67;4.10;;;21.40;48.00;;;20.59;44.25;98740.31;5083011;28;20455;-78
2022/06/17 07:21:12;;;;;;;6.23;4.57;;;21.40;47.90;;;20.69;44.04;98733.22;5087549;28;20453;-77
2022/06/17 07:23:42;;;;;;;4.50;4.20;;;21.40;47.70;;;20.89;44.51;98740.81;5084594;28;20442;-77
2022/06/17 07:26:16;;;;;;;4.20;3.90;;;21.50;48.20;;;20.75;44.83;98705.53;5085482;28;20536;-77
2022/06/17 07:28:45;;;;;;;4.07;3.77;;;21.70;48.40;;;20.67;44.52;98745.31;5086323;28;21009;-77
2022/06/17 07:31:13;;;;;;;4.43;4.03;;;21.60;48.20;;;20.51;45.32;98751.78;5090244;28;20479;-77
2022/06/17 07:33:41;;;;;;;6.57;4.13;;;21.50;48.20;;;20.47;45.35;98743.28;5085062;28;20468;-77
2022/06/17 07:39:53;;;;;;;6.80;4.57;;;21.40;48.20;;;20.56;45.02;98743.59;5075718;28;20468;-77
2022/06/17 07:41:50;;;;;;;7.60;4.13;;;21.60;49.00;;;20.86;44.71;98749.56;5085302;28;20494;-76
2022/06/17 07:44:19;;;;;;;4.57;4.10;;;21.50;48.40;;;20.86;45.21;98744.94;5087210;28;20447;-76
2022/06/17 07:46:47;;;;;;;5.00;4.23;;;21.50;48.80;;;20.44;45.60;98751.19;5076022;28;20464;-76
2022/06/17 07:49:14;;;;;;;5.17;4.67;;;21.30;48.70;;;20.55;45.79;98758.41;5085346;28;20471;-77
2022/06/17 07:51:41;;;;;;;4.50;4.20;;;21.30;49.10;;;20.94;45.16;98752.66;5065235;28;20524;-77
2022/06/17 07:54:08;;;;;;;3.70;3.40;;;21.60;49.20;;;21.03;43.94;98760.41;5079363;28;20444;-77
2022/06/17 07:56:36;;;;;;;4.33;4.00;;;21.80;48.40;;;20.82;44.87;98756.69;5084136;28;20510;-76
2022/06/17 07:59:03;;;;;;;4.87;4.30;;;21.70;48.30;;;20.91;44.60;98749.59;5087042;28;20953;-78
2022/06/17 08:01:32;;;;;;;4.17;3.87;;;21.60;48.20;;;21.08;44.39;98730.19;5083162;28;20460;-76
2022/06/17 08:03:59;;;;;;;5.07;4.07;;;22.00;48.70;;;21.18;43.93;98765.13;5088059;28;20455;-76
2022/06/17 08:06:27;;;;;;;5.70;4.70;;;22.00;48.10;;;21.50;43.21;98766.91;5089510;28;20455;-77
2022/06/17 08:08:54;;;;;;;5.70;4.37;;;22.20;48.20;;;21.41;43.84;98763.03;5079639;28;20457;-77
2022/06/17 08:11:22;;;;;;;4.70;4.30;;;22.20;48.30;;;21.34;44.20;98761.34;5091936;28;20525;-77
2022/06/17 08:13:49;;;;;;;4.67;4.27;;;22.20;48.50;;;21.55;43.77;98760.59;5096541;28;20489;-77
2022/06/17 08:16:17;;;;;;;6.20;4.60;;;22.20;48.50;;;21.48;43.94;98758.94;5109383;28;20453;-78
2022/06/17 08:18:46;;;;;;;4.87;4.33;;;22.20;48.60;;;21.18;43.53;98724.75;5090264;28;20490;-78
2022/06/17 08:21:14;;;;;;;4.87;4.40;;;22.10;48.30;;;20.91;44.02;98712.00;5092997;28;20444;-78
2022/06/17 08:23:42;;;;;;;4.73;4.33;;;21.90;48.10;;;21.19;44.20;98748.38;5086541;28;20457;-77
2022/06/17 08:26:09;;;;;;;5.43;3.83;;;22.00;48.60;;;21.36;43.64;98766.59;5082760;28;20821;-76
2022/06/17 08:28:36;;;;;;;5.87;3.87;;;22.00;48.30;;;21.26;41.83;98772.03;5089117;28;20514;-75
2022/06/17 08:31:05;;;;;;;3.70;3.40;;;22.00;47.00;;;21.33;42.26;98767.94;5072463;28;20469;-77
2022/06/17 08:33:32;;;;;;;5.37;3.80;;;21.90;47.20;;;21.27;42.16;98760.78;5085092;28;20519;-77
2022/06/17 08:36:07;;;;;;;3.93;3.63;;;22.00;47.40;;;21.54;41.29;98765.28;5086071;28;20811;-78
2022/06/17 08:38:39;;;;;;;3.90;3.27;;;22.10;46.90;;;21.78;41.46;98762.09;5089746;28;20467;-78
2022/06/17 08:41:22;;;;;;;5.63;3.30;;;22.40;47.00;;;21.78;40.87;98762.91;5091402;28;20449;-77
2022/06/17 08:44:29;;;;;;;3.90;3.47;;;22.50;46.40;;;21.84;40.76;98766.50;5089979;28;20476;-77
2022/06/17 08:47:20;;;;;;;3.73;3.43;;;22.60;46.40;;;21.77;41.67;98761.28;5085326;28;23477;-77
2022/06/17 08:50:11;;;;;;;4.60;3.13;;;22.50;46.90;;;21.67;40.30;98758.47;5083426;28;20823;-77
2022/06/17 08:53:20;;;;;;;5.97;3.67;;;22.50;46.20;;;21.75;40.81;98751.63;5083048;28;20573;-77
2022/06/17 08:55:55;;;;;;;3.60;3.20;;;22.40;46.40;;;21.74;40.30;98753.53;5085490;28;20986;-77
2022/06/17 08:58:31;;;;;;;4.80;3.40;;;22.40;46.00;;;21.77;39.88;98746.69;5079473;28;20461;-78
2022/06/17 09:01:07;;;;;;;3.57;3.27;;;22.40;45.90;;;21.93;38.81;98747.53;5079252;28;20491;-77
2022/06/17 09:03:52;;;;;;;5.70;3.20;;;22.70;45.20;;;22.04;38.88;98748.38;5082680;28;20983;-76
2022/06/17 09:06:41;;;;;;;3.50;3.20;;;22.80;45.30;;;21.95;39.02;98756.34;5084036;28;20461;-78
2022/06/17 09:09:56;;;;;;;3.50;3.20;;;22.70;45.00;;;22.03;39.03;98747.53;5088614;28;20483;-77
2022/06/17 09:12:39;;;;;;;3.20;3.00;;;22.60;45.30;;;22.06;39.30;98746.19;5066044;28;20567;-77
2022/06/17 09:15:17;;;;;;;3.70;3.40;;;22.60;45.40;;;22.35;38.35;98746.44;5089553;28;20461;-77
2022/06/17 09:17:55;;;;;;;3.40;3.10;;;22.90;45.10;;;22.20;38.86;98735.44;5085151;28;20453;-77
2022/06/17 09:20:31;;;;;;;5.43;3.23;;;22.90;45.10;;;22.40;38.47;98722.81;5089658;28;20512;-77
2022/06/17 09:23:02;;;;;;;3.70;3.40;;;23.00;45.10;;;22.61;38.02;98729.16;5086810;28;20566;-78
2022/06/17 09:25:39;;;;;;;2.90;2.70;;;23.20;45.00;;;23.14;37.27;98734.25;5088122;28;20480;-78
2022/06/17 09:28:20;;;;;;;3.70;2.67;;;23.60;45.10;;;23.21;36.73;98720.97;5085203;28;20460;-78
2022/06/17 09:30:54;;;;;;;2.73;2.53;;;23.80;44.60;;;22.80;37.33;98729.34;5089565;28;20470;-78
2022/06/17 09:33:28;;;;;;;4.90;3.13;;;23.50;44.50;;;22.93;36.73;98720.50;5080241;28;20518;-77
2022/06/17 09:36:05;;;;;;;7.50;2.97;;;23.50;44.50;;;23.02;36.91;98733.72;5085193;28;20466;-77
2022/06/17 09:38:38;;;;;;;2.43;2.30;;;23.60;44.60;;;22.91;37.07;98736.50;5086338;28;20470;-77
2022/06/17 09:41:16;;;;;;;4.63;2.90;;;23.50;44.60;;;22.78;37.32;98728.81;5081492;28;21003;-77
2022/06/17 09:43:50;;;;;;;3.93;2.70;;;23.40;44.40;;;22.62;36.66;98731.59;5088646;28;20512;-77
2022/06/17 09:46:22;;;;;;;5.73;2.90;;;23.30;44.10;;;23.02;35.91;98733.72;5086319;28;20528;-77
2022/06/17 09:48:57;;;;;;;3.00;2.30;;;23.50;43.90;;;22.99;36.15;98729.59;5088516;28;20459;-78
2022/06/17 09:51:32;;;;;;;3.23;2.87;;;23.60;43.80;;;22.91;35.50;98728.22;5089350;28;20463;-78
2022/06/17 09:54:06;;;;;;;3.83;2.27;;;23.60;43.40;;;23.02;35.51;98726.25;5084819;28;20976;-79
2022/06/17 09:56:40;;;;;;;2.93;2.73;;;23.70;43.40;;;23.04;35.38;98720.50;5088743;28;20455;-78
2022/06/17 09:59:16;;;;;;;2.77;2.57;;;23.70;43.30;;;22.70;36.49;98732.16;5083257;28;20552;-77
2022/06/17 10:01:45;;;;;;;5.03;2.60;;;23.40;43.50;;;22.64;35.98;98723.06;5081888;28;20501;-77
2022/06/17 10:04:15;;;;;;;2.50;2.30;;;23.30;43.60;;;22.94;35.00;98724.09;5086287;28;20462;-78
2022/06/17 10:06:55;;;;;;;3.00;2.20;;;23.40;43.10;;;22.83;35.12;98715.06;5087186;28;20448;-78
2022/06/17 10:09:50;;;;;;;2.93;2.63;;;23.50;43.20;;;22.77;35.39;98716.16;5088893;28;20543;-79
2022/06/17 10:12:34;;;;;;;3.43;2.63;;;23.40;42.90;;;23.38;34.62;98706.03;5083977;28;20496;-77
2022/06/17 10:15:18;;;;;;;2.67;2.47;;;23.80;43.10;;;23.62;34.48;98708.13;5087010;28;20513;-79
2022/06/17 10:21:07;;;;;;;2.50;2.27;;;24.00;42.80;;;23.62;34.53;98706.19;5088994;28;20446;-78
2022/06/17 10:23:41;;;;;;;4.43;2.40;;;24.20;43.00;;;23.47;35.27;98712.63;5085935;28;20455;-78
2022/06/17 10:26:22;;;;;;;5.10;2.70;;;24.10;43.30;;;23.49;34.59;98710.41;5080139;28;20949;-78
2022/06/17 10:29:11;;;;;;;3.03;2.50;;;24.10;43.00;;;23.51;34.30;98712.03;5086169;28;20439;-77
2022/06/17 10:31:43;;;;;;;3.03;2.50;;;24.20;42.80;;;23.46;34.52;98716.47;5087799;28;20467;-79
2022/06/17 10:34:17;;;;;;;3.13;2.20;;;24.10;42.80;;;23.48;34.32;98702.41;5077834;28;20443;-78
2022/06/17 10:36:49;;;;;;;5.33;2.57;;;24.10;42.70;;;23.53;33.66;98699.63;5086446;28;20469;-76
2022/06/17 10:39:19;;;;;;;2.03;1.83;;;24.10;42.40;;;23.57;33.75;98710.88;5082786;28;20774;-77
2022/06/17 10:41:48;;;;;;;2.13;2.00;;;24.10;42.30;;;23.36;33.37;98711.00;5085847;28;20958;-78
2022/06/17 10:44:22;;;;;;;2.50;2.30;;;24.00;41.60;;;23.38;33.20;98711.56;5086381;28;20492;-78
2022/06/17 10:46:56;;;;;;;2.50;2.30;;;24.00;41.70;;;23.33;34.08;98711.59;5084969;28;20926;-77
2022/06/17 10:49:29;;;;;;;3.97;2.33;;;23.80;42.20;;;23.32;33.87;98699.72;5080119;28;20757;-78